createdAt,value
2022-08-21T00:01:40.591Z,13.68
2022-08-21T00:04:30.082Z,14.10
2022-08-21T00:07:17.241Z,13.45
2022-08-21T00:10:05.641Z,12.37
2022-08-21T00:12:53.436Z,18.65
2022-08-21T00:15:42.763Z,14.95
2022-08-21T00:18:30.395Z,13.32
2022-08-21T00:21:18.830Z,10.75
2022-08-21T00:24:06.746Z,11.75
2022-08-21T00:26:55.231Z,14.68
2022-08-21T00:29:42.908Z,14.70
2022-08-21T00:32:30.439Z,16.55
2022-08-21T00:35:20.920Z,14.70
2022-08-21T00:38:09.847Z,14.78
2022-08-21T00:41:02.729Z,16.30
2022-08-21T00:43:49.707Z,13.95
2022-08-21T00:46:38.066Z,14.10
2022-08-21T00:49:25.274Z,17.85
2022-08-21T00:52:18.597Z,16.25
2022-08-21T00:55:09.307Z,12.75
2022-08-21T00:58:00.304Z,10.70
2022-08-21T01:00:51.518Z,13.62
2022-08-21T01:03:39.282Z,13.55
2022-08-21T01:06:28.652Z,14.28
2022-08-21T01:09:16.568Z,17.92
2022-08-21T01:12:04.376Z,15.35
2022-08-21T01:14:51.959Z,13.03
2022-08-21T01:17:39.464Z,13.43
2022-08-21T01:20:32.444Z,13.95
2022-08-21T01:23:15.932Z,14.07
2022-08-21T01:26:03.294Z,13.80
2022-08-21T01:29:02.673Z,12.25
2022-08-21T01:31:50.615Z,9.80
2022-08-21T01:34:40.841Z,13.75
2022-08-21T01:37:27.804Z,15.93
2022-08-21T01:40:34.460Z,15.55
2022-08-21T01:43:25.612Z,12.70
2022-08-21T01:46:10.807Z,14.38
2022-08-21T01:48:58.292Z,11.73
2022-08-21T01:51:46.409Z,10.28
2022-08-21T01:54:33.893Z,14.33
2022-08-21T01:57:21.436Z,12.33
2022-08-21T02:00:12.997Z,10.05
2022-08-21T02:03:00.499Z,11.20
2022-08-21T02:05:48.149Z,12.20
2022-08-21T02:08:35.744Z,11.25
2022-08-21T02:11:23.290Z,9.58
2022-08-21T02:14:15.604Z,12.60
2022-08-21T02:17:09.199Z,12.05
2022-08-21T02:19:53.820Z,13.78
2022-08-21T02:22:41.172Z,12.20
2022-08-21T02:25:29.764Z,19.00
2022-08-21T02:28:17.570Z,12.05
2022-08-21T02:31:06.267Z,14.35
2022-08-21T02:33:53.881Z,11.88
2022-08-21T02:36:41.340Z,10.88
2022-08-21T02:39:29.392Z,12.43
2022-08-21T02:42:17.249Z,13.45
2022-08-21T02:45:05.498Z,11.57
2022-08-21T02:48:01.522Z,11.18
2022-08-21T02:50:59.443Z,14.10
2022-08-21T02:53:48.421Z,12.70
2022-08-21T02:56:36.223Z,18.05
2022-08-21T02:59:23.757Z,16.60
2022-08-21T03:02:12.422Z,18.48
2022-08-21T03:05:00.033Z,14.30
2022-08-21T03:07:48.787Z,12.58
2022-08-21T03:10:36.041Z,13.05
2022-08-21T03:13:24.504Z,18.05
2022-08-21T03:16:12.158Z,15.80
2022-08-21T03:19:00.605Z,22.27
2022-08-21T03:21:48.234Z,15.05
2022-08-21T03:24:35.522Z,17.35
2022-08-21T03:27:22.893Z,13.43
2022-08-21T03:30:11.685Z,19.35
2022-08-21T03:33:00.579Z,17.15
2022-08-21T03:35:51.299Z,13.43
2022-08-21T03:38:39.328Z,15.90
2022-08-21T03:41:26.752Z,14.18
2022-08-21T03:44:14.510Z,13.10
2022-08-21T03:47:01.928Z,14.13
2022-08-21T03:49:49.890Z,15.25
2022-08-21T03:52:37.283Z,14.78
2022-08-21T03:55:25.865Z,14.00
2022-08-21T03:58:16.588Z,13.85
2022-08-21T04:01:05.487Z,15.45
2022-08-21T04:03:53.078Z,15.72
2022-08-21T04:06:40.716Z,15.40
2022-08-21T04:09:28.407Z,16.27
2022-08-21T04:12:15.825Z,12.53
2022-08-21T04:15:03.320Z,15.43
2022-08-21T04:17:51.448Z,19.32
2022-08-21T04:20:38.668Z,12.88
2022-08-21T04:23:26.753Z,15.72
2022-08-21T04:26:14.059Z,16.50
2022-08-21T04:29:01.395Z,14.55
2022-08-21T04:31:48.694Z,12.28
2022-08-21T04:34:36.408Z,17.55
2022-08-21T04:37:24.096Z,14.93
2022-08-21T04:40:13.904Z,16.35
2022-08-21T04:43:04.069Z,17.77
2022-08-21T04:45:53.223Z,13.60
2022-08-21T04:48:41.451Z,15.43
2022-08-21T04:51:31.820Z,13.38
2022-08-21T04:54:22.042Z,17.62
2022-08-21T04:57:12.213Z,16.75
2022-08-21T04:59:59.322Z,18.07
2022-08-21T05:02:52.815Z,20.17
2022-08-21T05:05:41.023Z,17.17
2022-08-21T05:08:29.919Z,17.65
2022-08-21T05:11:17.219Z,16.02
2022-08-21T05:14:04.753Z,16.15
2022-08-21T05:16:52.360Z,17.40
2022-08-21T05:19:39.702Z,19.42
2022-08-21T05:22:27.808Z,16.12
2022-08-21T05:25:15.355Z,20.57
2022-08-21T05:28:04.432Z,14.35
2022-08-21T05:30:53.775Z,13.95
2022-08-21T05:33:40.991Z,15.93
2022-08-21T05:36:31.392Z,14.85
2022-08-21T05:39:18.813Z,13.55
2022-08-21T05:42:06.489Z,12.95
2022-08-21T05:44:53.759Z,12.43
2022-08-21T05:47:41.748Z,18.98
2022-08-21T05:50:33.461Z,16.15
2022-08-21T05:53:19.293Z,24.67
2022-08-21T05:56:07.800Z,19.60
2022-08-21T05:58:56.519Z,17.92
2022-08-21T06:01:43.890Z,18.30
2022-08-21T06:04:31.675Z,18.27
2022-08-21T06:07:19.034Z,20.45
2022-08-21T06:10:07.119Z,18.45
2022-08-21T06:12:57.780Z,16.02
2022-08-21T06:15:45.910Z,20.50
2022-08-21T06:18:33.688Z,17.70
2022-08-21T06:21:21.543Z,18.07
2022-08-21T06:24:09.281Z,18.60
2022-08-21T06:26:57.699Z,18.07
2022-08-21T06:29:46.006Z,19.92
2022-08-21T06:32:33.198Z,19.65
2022-08-21T06:35:20.905Z,18.57
2022-08-21T06:38:08.490Z,21.95
2022-08-21T06:40:55.741Z,17.02
2022-08-21T06:43:45.007Z,19.20
2022-08-21T06:46:33.454Z,17.02
2022-08-21T06:49:21.671Z,19.00
2022-08-21T06:52:14.156Z,16.52
2022-08-21T06:55:01.707Z,13.60
2022-08-21T06:57:52.396Z,18.40
2022-08-21T07:00:42.132Z,15.63
2022-08-21T07:03:32.185Z,19.12
2022-08-21T07:06:19.394Z,16.73
2022-08-21T07:09:06.758Z,16.10
2022-08-21T07:11:56.679Z,16.65
2022-08-21T07:14:44.029Z,15.48
2022-08-21T07:17:31.347Z,17.67
2022-08-21T07:20:18.858Z,15.83
2022-08-21T07:23:09.640Z,18.45
2022-08-21T07:25:57.179Z,18.25
2022-08-21T07:28:45.151Z,19.55
2022-08-21T07:31:32.768Z,17.98
2022-08-21T07:34:20.317Z,16.35
2022-08-21T07:37:09.999Z,22.95
2022-08-21T07:39:57.463Z,17.17
2022-08-21T07:42:51.349Z,16.82
2022-08-21T07:45:39.382Z,15.98
2022-08-21T07:48:26.763Z,15.30
2022-08-21T07:51:17.432Z,19.75
2022-08-21T07:54:05.042Z,14.63
2022-08-21T07:56:52.699Z,18.65
2022-08-21T07:59:40.289Z,19.80
2022-08-21T08:02:30.429Z,17.15
2022-08-21T08:05:19.130Z,17.87
2022-08-21T08:08:06.324Z,14.63
2022-08-21T08:10:55.787Z,18.90
2022-08-21T08:13:52.185Z,18.52
2022-08-21T08:16:39.883Z,18.35
2022-08-21T08:19:27.001Z,18.87
2022-08-21T08:22:16.408Z,12.58
2022-08-21T08:25:09.292Z,16.45
2022-08-21T08:27:54.053Z,18.27
2022-08-21T08:30:41.397Z,18.32
2022-08-21T08:33:38.011Z,16.57
2022-08-21T08:36:28.710Z,15.55
2022-08-21T08:39:26.757Z,14.83
2022-08-21T08:42:33.139Z,20.68
2022-08-21T08:45:11.617Z,15.60
2022-08-21T08:48:01.876Z,15.03
2022-08-21T08:50:57.998Z,14.73
2022-08-21T08:53:51.624Z,15.90
2022-08-21T08:56:39.360Z,16.55
2022-08-21T08:59:28.992Z,13.62
2022-08-21T09:02:19.552Z,16.62
2022-08-21T09:05:08.793Z,12.33
2022-08-21T09:08:02.023Z,15.28
2022-08-21T09:11:04.922Z,12.98
2022-08-21T09:14:15.778Z,13.20
2022-08-21T09:17:18.288Z,17.00
2022-08-21T09:20:17.829Z,13.13
2022-08-21T09:23:10.884Z,13.93
2022-08-21T09:26:04.052Z,9.75
2022-08-21T09:28:56.900Z,22.58
2022-08-21T09:31:44.308Z,14.03
2022-08-21T09:34:33.232Z,10.00
2022-08-21T09:37:20.611Z,7.47
2022-08-21T09:40:11.266Z,9.23
2022-08-21T09:43:04.744Z,11.25
2022-08-21T09:45:54.740Z,8.63
2022-08-21T09:48:47.856Z,12.30
2022-08-21T09:51:38.206Z,11.28
2022-08-21T09:54:34.414Z,9.45
2022-08-21T09:57:46.362Z,10.63
2022-08-21T10:00:32.450Z,14.30
2022-08-21T10:03:22.681Z,9.48
2022-08-21T10:06:12.905Z,13.32
2022-08-21T10:09:17.601Z,9.70
2022-08-21T10:12:11.104Z,14.23
2022-08-21T10:15:09.459Z,7.70
2022-08-21T10:18:23.823Z,11.80
2022-08-21T10:21:20.218Z,10.43
2022-08-21T10:24:30.749Z,10.25
2022-08-21T10:27:44.599Z,11.33
2022-08-21T10:30:55.600Z,7.67
2022-08-21T10:34:04.151Z,7.47
2022-08-21T10:37:22.057Z,8.10
2022-08-21T10:40:21.602Z,8.48
2022-08-21T10:43:36.353Z,8.80
2022-08-21T10:46:32.612Z,9.00
2022-08-21T10:49:56.568Z,8.80
2022-08-21T10:52:56.112Z,8.88
2022-08-21T10:55:52.280Z,10.32
2022-08-21T10:58:48.811Z,10.32
2022-08-21T11:01:42.360Z,9.70
2022-08-21T11:04:46.350Z,10.23
2022-08-21T11:07:48.899Z,9.90
2022-08-21T11:10:57.978Z,9.08
2022-08-21T11:13:40.850Z,8.93
2022-08-21T11:16:43.543Z,8.68
2022-08-21T11:19:33.971Z,10.90
2022-08-21T11:22:31.976Z,6.08
2022-08-21T11:25:36.624Z,6.60
2022-08-21T11:28:32.087Z,10.08
2022-08-21T11:31:31.569Z,10.08
2022-08-21T11:34:42.177Z,5.78
2022-08-21T11:37:59.376Z,6.25
2022-08-21T11:41:14.051Z,10.08
2022-08-21T11:44:22.580Z,5.50
2022-08-21T11:47:27.815Z,11.25
2022-08-21T11:50:29.720Z,7.85
2022-08-21T11:53:12.703Z,6.83
2022-08-21T11:56:06.016Z,7.55
2022-08-21T11:59:15.760Z,8.15
2022-08-21T12:02:04.358Z,5.22
2022-08-21T12:04:57.367Z,6.70
2022-08-21T12:07:46.882Z,8.05
2022-08-21T12:10:37.643Z,10.55
2022-08-21T12:13:39.876Z,10.58
2022-08-21T12:16:19.782Z,5.47
2022-08-21T12:19:09.818Z,8.53
2022-08-21T12:22:10.083Z,7.47
2022-08-21T12:25:00.429Z,7.17
2022-08-21T12:27:54.039Z,7.05
2022-08-21T12:30:46.389Z,7.28
2022-08-21T12:33:41.835Z,9.80
2022-08-21T12:36:47.493Z,5.40
2022-08-21T12:39:38.738Z,6.28
2022-08-21T12:42:34.921Z,3.35
2022-08-21T12:45:43.626Z,6.42
2022-08-21T12:48:50.643Z,8.88
2022-08-21T12:51:50.187Z,6.67
2022-08-21T12:54:46.118Z,6.28
2022-08-21T12:57:33.381Z,9.00
2022-08-21T13:00:23.792Z,6.33
2022-08-21T13:03:11.188Z,9.60
2022-08-21T13:06:00.732Z,7.25
2022-08-21T13:08:49.840Z,5.85
2022-08-21T13:11:37.854Z,7.65
2022-08-21T13:14:32.617Z,9.38
2022-08-21T13:17:25.922Z,5.40
2022-08-21T13:20:24.352Z,6.12
2022-08-21T13:23:23.736Z,6.50
2022-08-21T13:26:19.998Z,7.58
2022-08-21T13:29:13.488Z,11.12
2022-08-21T13:32:03.788Z,9.65
2022-08-21T13:34:54.036Z,7.55
2022-08-21T13:37:43.011Z,6.67
2022-08-21T13:40:46.817Z,7.17
2022-08-21T13:43:37.059Z,6.75
2022-08-21T13:46:25.823Z,4.05
2022-08-21T13:49:16.869Z,5.40
2022-08-21T13:52:05.801Z,2.70
2022-08-21T13:54:59.309Z,4.60
2022-08-21T13:57:46.802Z,4.80
2022-08-21T14:00:36.596Z,4.72
2022-08-21T14:03:47.307Z,7.33
2022-08-21T14:06:40.158Z,5.90
2022-08-21T14:09:36.667Z,6.58
2022-08-21T14:12:30.092Z,5.35
2022-08-21T14:15:20.356Z,4.62
2022-08-21T14:18:19.197Z,4.20
2022-08-21T14:21:09.118Z,5.12
2022-08-21T14:24:08.069Z,6.30
2022-08-21T14:27:01.263Z,4.53
2022-08-21T14:29:48.921Z,3.72
2022-08-21T14:32:44.884Z,7.45
2022-08-21T14:35:31.364Z,5.70
2022-08-21T14:38:22.095Z,4.47
2022-08-21T14:41:24.983Z,3.02
2022-08-21T14:44:12.744Z,5.83
2022-08-21T14:47:01.093Z,3.52
2022-08-21T14:49:48.767Z,3.92
2022-08-21T14:52:37.616Z,5.15
2022-08-21T14:55:25.447Z,3.67
2022-08-21T14:58:12.950Z,5.15
2022-08-21T15:01:02.112Z,5.45
2022-08-21T15:03:50.173Z,3.83
2022-08-21T15:06:37.756Z,3.45
2022-08-21T15:09:25.555Z,5.80
2022-08-21T15:12:14.789Z,6.72
2022-08-21T15:15:01.868Z,8.10
2022-08-21T15:17:48.997Z,3.60
2022-08-21T15:20:37.707Z,7.05
2022-08-21T15:23:27.920Z,6.47
2022-08-21T15:26:15.715Z,3.85
2022-08-21T15:29:06.780Z,4.10
2022-08-21T15:32:06.479Z,5.37
2022-08-21T15:34:55.031Z,4.00
2022-08-21T15:37:42.620Z,5.00
2022-08-21T15:40:30.889Z,4.35
2022-08-21T15:43:30.184Z,4.70
2022-08-21T15:46:20.104Z,4.40
2022-08-21T15:49:07.855Z,7.47
2022-08-21T15:51:55.105Z,3.67
2022-08-21T15:54:44.020Z,5.65
2022-08-21T15:57:31.856Z,4.17
2022-08-21T16:00:23.926Z,5.00
2022-08-21T16:03:14.811Z,5.22
2022-08-21T16:06:02.014Z,5.37
2022-08-21T16:08:49.000Z,6.55
2022-08-21T16:11:36.253Z,3.45
2022-08-21T16:14:23.661Z,4.08
2022-08-21T16:17:10.989Z,3.83
2022-08-21T16:20:01.088Z,6.85
2022-08-21T16:22:50.479Z,3.65
2022-08-21T16:25:40.515Z,7.72
2022-08-21T16:28:27.849Z,5.00
2022-08-21T16:31:16.002Z,5.45
2022-08-21T16:34:04.318Z,6.80
2022-08-21T16:36:51.590Z,5.00
2022-08-21T16:39:39.052Z,4.28
2022-08-21T16:42:28.312Z,2.98
2022-08-21T16:45:18.701Z,3.52
2022-08-21T16:48:07.837Z,5.95
2022-08-21T16:50:55.008Z,4.60
2022-08-21T16:53:43.682Z,3.45
2022-08-21T16:56:31.732Z,5.42
2022-08-21T16:59:19.873Z,6.53
2022-08-21T17:02:10.083Z,6.35
2022-08-21T17:04:57.486Z,3.80
2022-08-21T17:07:46.225Z,2.62
2022-08-21T17:10:33.853Z,5.83
2022-08-21T17:13:21.687Z,3.42
2022-08-21T17:16:09.096Z,3.90
2022-08-21T17:18:57.808Z,2.12
2022-08-21T17:21:45.157Z,5.72
2022-08-21T17:24:32.839Z,5.72
2022-08-21T17:27:23.248Z,5.90
2022-08-21T17:30:13.717Z,4.58
2022-08-21T17:33:01.778Z,4.72
2022-08-21T17:35:49.357Z,4.80
2022-08-21T17:38:37.723Z,3.77
2022-08-21T17:41:26.447Z,3.40
2022-08-21T17:44:18.717Z,3.58
2022-08-21T17:47:07.460Z,4.03
2022-08-21T17:49:54.832Z,3.15
2022-08-21T17:52:44.644Z,3.20
2022-08-21T17:55:34.103Z,2.58
2022-08-21T17:58:21.479Z,4.72
2022-08-21T18:01:09.030Z,6.10
2022-08-21T18:03:56.372Z,3.33
2022-08-21T18:06:45.127Z,9.90
2022-08-21T18:09:32.600Z,4.55
2022-08-21T18:12:20.151Z,3.58
2022-08-21T18:15:08.501Z,2.52
2022-08-21T18:17:56.003Z,4.42
2022-08-21T18:20:43.489Z,4.08
2022-08-21T18:23:44.107Z,2.33
2022-08-21T18:26:22.705Z,6.42
2022-08-21T18:29:13.307Z,4.42
2022-08-21T18:32:03.057Z,5.53
2022-08-21T18:34:51.344Z,2.08
2022-08-21T18:37:38.743Z,3.35
2022-08-21T18:40:26.289Z,4.58
2022-08-21T18:43:15.682Z,2.95
2022-08-21T18:46:03.397Z,2.50
2022-08-21T18:48:50.948Z,3.45
2022-08-21T18:51:44.775Z,7.53
2022-08-21T18:54:29.048Z,4.12
2022-08-21T18:57:16.879Z,4.35
2022-08-21T19:00:09.607Z,2.45
2022-08-21T19:02:57.046Z,4.60
2022-08-21T19:05:45.256Z,3.25
2022-08-21T19:08:32.547Z,4.30
2022-08-21T19:11:23.365Z,3.83
2022-08-21T19:14:15.246Z,4.28
2022-08-21T19:17:03.933Z,3.67
2022-08-21T19:19:52.936Z,3.92
2022-08-21T19:22:40.849Z,2.40
2022-08-21T19:25:33.799Z,3.10
2022-08-21T19:28:21.623Z,3.58
2022-08-21T19:31:23.608Z,5.47
2022-08-21T19:34:19.534Z,5.75
2022-08-21T19:37:07.244Z,7.50
2022-08-21T19:39:55.217Z,5.12
2022-08-21T19:42:43.718Z,4.78
2022-08-21T19:45:34.547Z,5.17
2022-08-21T19:48:22.584Z,4.42
2022-08-21T19:51:09.957Z,4.08
2022-08-21T19:53:58.100Z,3.50
2022-08-21T19:56:46.055Z,3.50
2022-08-21T19:59:36.321Z,3.45
2022-08-21T20:02:24.104Z,4.15
2022-08-21T20:05:12.216Z,6.05
2022-08-21T20:07:59.554Z,3.75
2022-08-21T20:10:47.667Z,3.15
2022-08-21T20:13:36.758Z,4.47
2022-08-21T20:16:24.055Z,4.17
2022-08-21T20:19:14.160Z,2.92
2022-08-21T20:22:01.820Z,4.72
2022-08-21T20:24:49.143Z,2.35
2022-08-21T20:30:26.075Z,5.75
2022-08-21T20:33:14.048Z,3.00
2022-08-21T20:36:02.575Z,3.47
2022-08-21T20:38:52.757Z,5.65
2022-08-21T20:41:39.995Z,3.40
2022-08-21T20:44:30.781Z,2.67
2022-08-21T20:47:18.235Z,2.72
2022-08-21T20:50:13.625Z,4.53
2022-08-21T20:53:00.893Z,3.17
2022-08-21T20:55:51.020Z,3.60
2022-08-21T20:58:58.301Z,3.95
2022-08-21T21:01:48.541Z,4.03
2022-08-21T21:04:44.898Z,3.95
2022-08-21T21:07:38.840Z,2.72
2022-08-21T21:10:32.231Z,6.03
2022-08-21T21:13:23.848Z,3.75
2022-08-21T21:16:20.436Z,6.00
2022-08-21T21:19:11.142Z,6.45
2022-08-21T21:22:01.607Z,3.40
2022-08-21T21:24:54.486Z,2.92
2022-08-21T21:27:50.406Z,4.50
2022-08-21T21:30:46.725Z,3.02
2022-08-21T21:33:33.107Z,3.60
2022-08-21T21:36:30.144Z,4.70
2022-08-21T21:39:49.529Z,3.05
2022-08-21T21:42:50.649Z,3.75
2022-08-21T21:46:06.721Z,2.37
2022-08-21T21:49:12.670Z,5.45
2022-08-21T21:52:21.231Z,4.25
2022-08-21T21:55:28.155Z,5.15
2022-08-21T21:58:36.454Z,2.85
2022-08-21T22:01:39.375Z,3.10
2022-08-21T22:04:35.954Z,3.65
2022-08-21T22:07:36.192Z,4.58
2022-08-21T22:10:31.995Z,4.97
2022-08-21T22:13:28.606Z,3.72
2022-08-21T22:16:16.355Z,3.75
2022-08-21T22:19:09.505Z,3.80
2022-08-21T22:22:04.991Z,3.17
2022-08-21T22:24:56.006Z,3.87
2022-08-21T22:27:44.454Z,1.75
2022-08-21T22:30:45.316Z,4.35
2022-08-21T22:33:32.980Z,2.72
2022-08-21T22:36:21.824Z,6.78
2022-08-21T22:39:15.289Z,4.03
2022-08-21T22:42:14.239Z,3.65
2022-08-21T22:47:54.627Z,2.42
2022-08-21T22:50:42.393Z,3.87
2022-08-21T22:53:33.281Z,5.53
2022-08-21T22:56:39.133Z,5.03
2022-08-21T22:59:34.719Z,4.45
2022-08-21T23:02:37.620Z,4.58
2022-08-21T23:05:34.224Z,2.70
2022-08-21T23:08:25.061Z,4.30
2022-08-21T23:11:20.187Z,2.90
2022-08-21T23:14:13.998Z,4.92
2022-08-21T23:17:00.692Z,2.50
2022-08-21T23:20:00.144Z,3.58
2022-08-21T23:23:23.501Z,4.05
2022-08-21T23:26:25.175Z,5.15
2022-08-21T23:29:33.092Z,4.25
2022-08-21T23:32:23.222Z,3.47
2022-08-21T23:35:19.624Z,4.12
2022-08-21T23:38:26.788Z,3.25
2022-08-21T23:41:34.377Z,5.72
2022-08-21T23:44:32.217Z,4.30
2022-08-21T23:47:46.624Z,4.40
2022-08-21T23:50:57.642Z,4.40
2022-08-21T23:53:52.388Z,3.80
2022-08-21T23:57:00.813Z,4.75
2022-08-21T23:59:51.175Z,2.67
